Observation data for Seminole on 01/17/2021      Previous  Date  Next       Current Mesonet Observations  Soil Data  Daily Summary Page  Observations in Plain Language
KSM1 170600Z 33008KT M01/M04 A3012 RMK A01 T10111042  RH  080%=      5-min Rain = 0
KSM1 170605Z 33009KT M01/M04 A3012 RMK A01 T10101041  RH  080%=      5-min Rain = 0
KSM1 170610Z 33007KT M01/M04 A3012 RMK A01 T10081040  RH  080%=      5-min Rain = 0
KSM1 170615Z 33008KT M01/M04 A3012 RMK A01 T10091040  RH  080%=      5-min Rain = 0
KSM1 170620Z 33007KT M01/M04 A3012 RMK A01 T10111041  RH  080%=      5-min Rain = 0
KSM1 170625Z 33007KT M01/M04 A3012 RMK A01 T10101041  RH  080%=      5-min Rain = 0
KSM1 170630Z 32008KT M01/M04 A3012 RMK A01 T10101041  RH  080%=      5-min Rain = 0
KSM1 170635Z 32007KT M01/M04 A3012 RMK A01 T10101041  RH  080%=      5-min Rain = 0
KSM1 170640Z 31006KT M01/M04 A3012 RMK A01 T10111041  RH  081%=      5-min Rain = 0
KSM1 170645Z 31006KT M01/M04 A3011 RMK A01 T10101040  RH  081%=      5-min Rain = 0
KSM1 170650Z 31005KT M01/M04 A3011 RMK A01 T10101040  RH  081%=      5-min Rain = 0
KSM1 170655Z 29005KT M01/M04 A3011 RMK A01 T10121041  RH  081%=      5-min Rain = 0
KSM1 170700Z 29005KT M01/M04 A3011 RMK A01 T10101041  RH  080%=      5-min Rain = 0
KSM1 170705Z 28004KT M01/M04 A3011 RMK A01 T10081042  RH  078%=      5-min Rain = 0
KSM1 170710Z 28005KT M01/M04 A3011 RMK A01 T10111044  RH  079%=      5-min Rain = 0
KSM1 170715Z 28005KT M02/M05 A3011 RMK A01 T10151046  RH  080%=      5-min Rain = 0
KSM1 170720Z 27007KT M02/M05 A3011 RMK A01 T10181047  RH  081%=      5-min Rain = 0
KSM1 170725Z 28007KT M02/M05 A3011 RMK A01 T10191047  RH  081%=      5-min Rain = 0
KSM1 170730Z 28005KT M02/M05 A3011 RMK A01 T10231049  RH  083%=      5-min Rain = 0
KSM1 170735Z 29005KT M02/M05 A3011 RMK A01 T10241047  RH  085%=      5-min Rain = 0
KSM1 170740Z 28006KT M02/M05 A3011 RMK A01 T10231045  RH  085%=      5-min Rain = 0
KSM1 170745Z 28006KT M02/M04 A3012 RMK A01 T10211044  RH  085%=      5-min Rain = 0
KSM1 170750Z 29007KT M02/M04 A3012 RMK A01 T10201044  RH  084%=      5-min Rain = 0
KSM1 170755Z 29007KT M02/M04 A3012 RMK A01 T10191043  RH  084%=      5-min Rain = 0
KSM1 170800Z 29008KT M02/M04 A3012 RMK A01 T10171043  RH  083%=      5-min Rain = 0
KSM1 170805Z 30007KT M02/M04 A3012 RMK A01 T10161043  RH  082%=      5-min Rain = 0
KSM1 170810Z 30008G13KT M02/M04 A3013 RMK A01 T10151043  RH  082%=      5-min Rain = 0
KSM1 170815Z 29008KT M01/M04 A3012 RMK A01 T10121043  RH  080%=      5-min Rain = 0
KSM1 170820Z 30007KT M01/M04 A3012 RMK A01 T10131044  RH  080%=      5-min Rain = 0
KSM1 170825Z 29006KT M01/M04 A3012 RMK A01 T10141044  RH  080%=      5-min Rain = 0
KSM1 170830Z 29006KT M01/M04 A3012 RMK A01 T10141044  RH  080%=      5-min Rain = 0
KSM1 170835Z 29006KT M02/M04 A3012 RMK A01 T10151044  RH  081%=      5-min Rain = 0
KSM1 170840Z 29007KT M02/M05 A3013 RMK A01 T10151045  RH  081%=      5-min Rain = 0
KSM1 170845Z 30006KT M02/M05 A3012 RMK A01 T10151045  RH  080%=      5-min Rain = 0
KSM1 170850Z 30006KT M02/M05 A3012 RMK A01 T10161046  RH  080%=      5-min Rain = 0
KSM1 170855Z 30006KT M02/M05 A3012 RMK A01 T10171047  RH  081%=      5-min Rain = 0
KSM1 170900Z 31007KT M02/M05 A3012 RMK A01 T10171047  RH  080%=      5-min Rain = 0
KSM1 170905Z 31006KT M02/M05 A3012 RMK A01 T10191048  RH  081%=      5-min Rain = 0
KSM1 170910Z 30006KT M02/M05 A3012 RMK A01 T10181047  RH  081%=      5-min Rain = 0
KSM1 170915Z 30006KT M02/M05 A3012 RMK A01 T10181047  RH  081%=      5-min Rain = 0
KSM1 170920Z 30007KT M02/M05 A3012 RMK A01 T10171047  RH  080%=      5-min Rain = 0
KSM1 170925Z 30007KT M02/M05 A3012 RMK A01 T10171048  RH  080%=      5-min Rain = 0
KSM1 170930Z 30007KT M02/M05 A3012 RMK A01 T10181048  RH  080%=      5-min Rain = 0
KSM1 170935Z 30006KT M02/M05 A3012 RMK A01 T10191049  RH  080%=      5-min Rain = 0
KSM1 170940Z 30005KT M02/M05 A3012 RMK A01 T10191049  RH  080%=      5-min Rain = 0
KSM1 170945Z 29005KT M02/M05 A3011 RMK A01 T10191049  RH  081%=      5-min Rain = 0
KSM1 170950Z 30006KT M02/M05 A3011 RMK A01 T10191049  RH  080%=      5-min Rain = 0
KSM1 170955Z 30007KT M02/M05 A3011 RMK A01 T10181049  RH  080%=      5-min Rain = 0
KSM1 171000Z 30007KT M02/M05 A3012 RMK A01 T10181050  RH  079%=      5-min Rain = 0
KSM1 171005Z 31006KT M02/M05 A3012 RMK A01 T10201051  RH  079%=      5-min Rain = 0
KSM1 171010Z 31005KT M02/M05 A3011 RMK A01 T10221051  RH  081%=      5-min Rain = 0
KSM1 171015Z 31007KT M02/M05 A3012 RMK A01 T10241052  RH  081%=      5-min Rain = 0
KSM1 171020Z 31007KT M02/M05 A3011 RMK A01 T10241051  RH  082%=      5-min Rain = 0
KSM1 171025Z 31007KT M02/M05 A3011 RMK A01 T10241051  RH  082%=      5-min Rain = 0
KSM1 171030Z 31006KT M02/M05 A3011 RMK A01 T10241051  RH  082%=      5-min Rain = 0
KSM1 171035Z 30006KT M02/M05 A3011 RMK A01 T10241051  RH  082%=      5-min Rain = 0
KSM1 171040Z 31005KT M03/M05 A3011 RMK A01 T10251051  RH  082%=      5-min Rain = 0
KSM1 171045Z 31006KT M03/M05 A3011 RMK A01 T10251051  RH  082%=      5-min Rain = 0
KSM1 171050Z 31006KT M03/M05 A3011 RMK A01 T10251052  RH  082%=      5-min Rain = 0
KSM1 171055Z 31006KT M03/M05 A3011 RMK A01 T10261052  RH  083%=      5-min Rain = 0
KSM1 171100Z 31006KT M03/M05 A3011 RMK A01 T10261052  RH  083%=      5-min Rain = 0
KSM1 171105Z 31006KT M03/M05 A3011 RMK A01 T10251052  RH  082%=      5-min Rain = 0
KSM1 171110Z 31006KT M03/M05 A3011 RMK A01 T10251052  RH  082%=      5-min Rain = 0
KSM1 171115Z 31006KT M03/M05 A3011 RMK A01 T10251052  RH  082%=      5-min Rain = 0
KSM1 171120Z 31005KT M03/M05 A3011 RMK A01 T10261053  RH  082%=      5-min Rain = 0
KSM1 171125Z 31005KT M03/M05 A3011 RMK A01 T10261053  RH  082%=      5-min Rain = 0
KSM1 171130Z 31005KT M03/M05 A3012 RMK A01 T10271053  RH  082%=      5-min Rain = 0
KSM1 171135Z 32005KT M03/M05 A3012 RMK A01 T10281054  RH  082%=      5-min Rain = 0
KSM1 171140Z 32006KT M03/M06 A3012 RMK A01 T10291055  RH  082%=      5-min Rain = 0
KSM1 171145Z 32006KT M03/M06 A3012 RMK A01 T10281055  RH  082%=      5-min Rain = 0
KSM1 171150Z 33006KT M03/M06 A3012 RMK A01 T10281055  RH  081%=      5-min Rain = 0
KSM1 171155Z 33007KT M03/M05 A3012 RMK A01 T10261054  RH  081%=      5-min Rain = 0
KSM1 171200Z 32006KT M02/M05 A3012 RMK A01 T10241054  RH  080%=      5-min Rain = 0
KSM1 171205Z 31005KT M03/M05 A3012 RMK A01 T10251054  RH  081%=      5-min Rain = 0
KSM1 171210Z 32005KT M03/M05 A3012 RMK A01 T10261054  RH  081%=      5-min Rain = 0
KSM1 171215Z 32006KT M03/M06 A3012 RMK A01 T10261055  RH  081%=      5-min Rain = 0
KSM1 171220Z 32005KT M03/M06 A3012 RMK A01 T10261056  RH  080%=      5-min Rain = 0
KSM1 171225Z 32005KT M03/M06 A3012 RMK A01 T10261056  RH  080%=      5-min Rain = 0
KSM1 171230Z 32005KT M03/M06 A3012 RMK A01 T10271056  RH  081%=      5-min Rain = 0
KSM1 171235Z 31006KT M03/M06 A3012 RMK A01 T10271056  RH  081%=      5-min Rain = 0
KSM1 171240Z 31006KT M03/M06 A3012 RMK A01 T10281055  RH  082%=      5-min Rain = 0
KSM1 171245Z 31005KT M03/M06 A3012 RMK A01 T10281055  RH  082%=      5-min Rain = 0
KSM1 171250Z 31005KT M03/M06 A3012 RMK A01 T10291056  RH  082%=      5-min Rain = 0
KSM1 171255Z 31006KT M03/M06 A3013 RMK A01 T10291057  RH  082%=      5-min Rain = 0
KSM1 171300Z 32006KT M03/M06 A3013 RMK A01 T10331059  RH  082%=      5-min Rain = 0
KSM1 171305Z 33007KT M04/M06 A3013 RMK A01 T10351059  RH  083%=      5-min Rain = 0
KSM1 171310Z 33007KT M03/M06 A3013 RMK A01 T10321058  RH  082%=      5-min Rain = 0
KSM1 171315Z 32007KT M03/M06 A3014 RMK A01 T10301057  RH  082%=      5-min Rain = 0
KSM1 171320Z 32007KT M03/M06 A3014 RMK A01 T10301057  RH  082%=      5-min Rain = 0
KSM1 171325Z 32007KT M03/M06 A3015 RMK A01 T10311058  RH  082%=      5-min Rain = 0
KSM1 171330Z 33007KT M03/M06 A3015 RMK A01 T10321058  RH  082%=      5-min Rain = 0
KSM1 171335Z 33007KT M03/M06 A3015 RMK A01 T10321058  RH  082%=      5-min Rain = 0
KSM1 171340Z 33006KT M03/M06 A3015 RMK A01 T10301057  RH  082%=      5-min Rain = 0
KSM1 171345Z 34006KT M03/M06 A3015 RMK A01 T10301058  RH  081%=      5-min Rain = 0
KSM1 171350Z 33007KT M03/M06 A3015 RMK A01 T10301058  RH  081%=      5-min Rain = 0
KSM1 171355Z 33007KT M03/M06 A3015 RMK A01 T10301058  RH  081%=      5-min Rain = 0
KSM1 171400Z 33007KT M03/M06 A3014 RMK A01 T10271057  RH  080%=      5-min Rain = 0
KSM1 171405Z 34006KT M03/M06 A3014 RMK A01 T10261057  RH  079%=      5-min Rain = 0
KSM1 171410Z 34005KT M03/M06 A3013 RMK A01 T10271058  RH  079%=      5-min Rain = 0
KSM1 171415Z 34006KT M03/M06 A3014 RMK A01 T10271058  RH  080%=      5-min Rain = 0
KSM1 171420Z 35008KT M02/M05 A3014 RMK A01 T10231054  RH  079%=      5-min Rain = 0
KSM1 171425Z 35009KT M02/M05 A3014 RMK A01 T10181052  RH  077%=      5-min Rain = 0
KSM1 171430Z 35008KT M02/M05 A3015 RMK A01 T10171052  RH  077%=      5-min Rain = 0
KSM1 171435Z 35010KT M02/M05 A3015 RMK A01 T10151051  RH  076%=      5-min Rain = 0
KSM1 171440Z 00009KT M01/M05 A3015 RMK A01 T10101049  RH  075%=      5-min Rain = 0
KSM1 171445Z 00009KT M01/M05 A3015 RMK A01 T10061048  RH  073%=      5-min Rain = 0
KSM1 171450Z 00009KT M00/M05 A3016 RMK A01 T10031048  RH  072%=      5-min Rain = 0
KSM1 171455Z 00008KT 00/05 A3016 RMK A01 T00000-46  RH  071%=      5-min Rain = 0
KSM1 171500Z 00008KT 00/M05 A3016 RMK A01 T00021045  RH  071%=      5-min Rain = 0
KSM1 171505Z 01007KT 00/M04 A3016 RMK A01 T00041043  RH  071%=      5-min Rain = 0
KSM1 171510Z 01008KT 01/M04 A3016 RMK A01 T00081041  RH  070%=      5-min Rain = 0
KSM1 171515Z 02008KT 01/M04 A3016 RMK A01 T00131038  RH  069%=      5-min Rain = 0
KSM1 171520Z 03008KT 02/M04 A3016 RMK A01 T00171036  RH  068%=      5-min Rain = 0
KSM1 171525Z 03009KT 02/M04 A3016 RMK A01 T00181035  RH  068%=      5-min Rain = 0
KSM1 171530Z 04008KT 02/M03 A3016 RMK A01 T00191034  RH  068%=      5-min Rain = 0
KSM1 171535Z 04008KT 02/M03 A3017 RMK A01 T00201033  RH  068%=      5-min Rain = 0
KSM1 171540Z 05008KT 02/M03 A3017 RMK A01 T00241029  RH  068%=      5-min Rain = 0
KSM1 171545Z 05008KT 03/M03 A3017 RMK A01 T00291026  RH  068%=      5-min Rain = 0
KSM1 171550Z 04008KT 03/M02 A3018 RMK A01 T00341024  RH  066%=      5-min Rain = 0
KSM1 171555Z 04008KT 04/M03 A3018 RMK A01 T00371026  RH  064%=      5-min Rain = 0
KSM1 171600Z 05008KT 04/M03 A3018 RMK A01 T00371028  RH  063%=      5-min Rain = 0
KSM1 171605Z 05007KT 04/M03 A3018 RMK A01 T00391028  RH  062%=      5-min Rain = 0
KSM1 171610Z 05007KT 04/M03 A3018 RMK A01 T00441027  RH  060%=      5-min Rain = 0
KSM1 171615Z 05007KT 04/M03 A3018 RMK A01 T00441031  RH  059%=      5-min Rain = 0
KSM1 171620Z 06007KT 04/M03 A3018 RMK A01 T00441032  RH  058%=      5-min Rain = 0
KSM1 171625Z 07007KT 05/M03 A3018 RMK A01 T00481031  RH  057%=      5-min Rain = 0
KSM1 171630Z 07008KT 05/M03 A3018 RMK A01 T00481032  RH  056%=      5-min Rain = 0
KSM1 171635Z 08008KT 05/M03 A3018 RMK A01 T00521030  RH  055%=      5-min Rain = 0
KSM1 171640Z 09008KT 05/M03 A3018 RMK A01 T00541031  RH  055%=      5-min Rain = 0
KSM1 171645Z 09007KT 06/M03 A3018 RMK A01 T00561028  RH  055%=      5-min Rain = 0
KSM1 171650Z 09008KT 06/M03 A3018 RMK A01 T00591028  RH  054%=      5-min Rain = 0
KSM1 171655Z 10008KT 06/M03 A3018 RMK A01 T00611028  RH  053%=      5-min Rain = 0
KSM1 171700Z 10009KT 06/M03 A3018 RMK A01 T00641028  RH  052%=      5-min Rain = 0
KSM1 171705Z 10008KT 07/M03 A3018 RMK A01 T00661026  RH  052%=      5-min Rain = 0
KSM1 171710Z 09008KT 07/M03 A3018 RMK A01 T00701030  RH  049%=      5-min Rain = 0
KSM1 171715Z 09008KT 07/M03 A3018 RMK A01 T00721029  RH  049%=      5-min Rain = 0
KSM1 171720Z 09007KT 08/M03 A3018 RMK A01 T00761026  RH  049%=      5-min Rain = 0
KSM1 171725Z 12009KT 08/M03 A3018 RMK A01 T00781031  RH  046%=      5-min Rain = 0
KSM1 171730Z 11008KT 08/M03 A3018 RMK A01 T00791032  RH  046%=      5-min Rain = 0
KSM1 171735Z 11007KT 08/M03 A3017 RMK A01 T00811029  RH  046%=      5-min Rain = 0
KSM1 171740Z 11006KT 08/M03 A3017 RMK A01 T00821029  RH  046%=      5-min Rain = 0
KSM1 171745Z 13008KT 09/M03 A3017 RMK A01 T00871029  RH  044%=      5-min Rain = 0
KSM1 171750Z 11007KT 09/M03 A3017 RMK A01 T00871032  RH  043%=      5-min Rain = 0
KSM1 171755Z 11007KT 09/M04 A3018 RMK A01 T00881035  RH  042%=      5-min Rain = 0
KSM1 171800Z 11007KT 09/M03 A3018 RMK A01 T00881030  RH  044%=      5-min Rain = 0
KSM1 171805Z 11006KT 09/M03 A3017 RMK A01 T00901028  RH  044%=      5-min Rain = 0
KSM1 171810Z 10007KT 09/M03 A3017 RMK A01 T00931031  RH  042%=      5-min Rain = 0
KSM1 171815Z 09006G11KT 09/M03 A3017 RMK A01 T00911031  RH  042%=      5-min Rain = 0
KSM1 171820Z 10006KT 09/M03 A3017 RMK A01 T00921030  RH  042%=      5-min Rain = 0
KSM1 171825Z 10006KT 09/M03 A3016 RMK A01 T00941029  RH  042%=      5-min Rain = 0
KSM1 171830Z 11007KT 10/M03 A3016 RMK A01 T00981028  RH  041%=      5-min Rain = 0
KSM1 171835Z 09008KT 10/M03 A3016 RMK A01 T00991031  RH  040%=      5-min Rain = 0
KSM1 171840Z 11007KT 10/M03 A3016 RMK A01 T01011031  RH  040%=      5-min Rain = 0
KSM1 171845Z 08007KT 10/M03 A3015 RMK A01 T01011033  RH  039%=      5-min Rain = 0
KSM1 171850Z 09007KT 10/M04 A3015 RMK A01 T01011037  RH  038%=      5-min Rain = 0
KSM1 171855Z 09006KT 10/M03 A3014 RMK A01 T01021033  RH  039%=      5-min Rain = 0
KSM1 171900Z 10006KT 10/M04 A3014 RMK A01 T01031039  RH  037%=      5-min Rain = 0
KSM1 171905Z 10005KT 11/M04 A3014 RMK A01 T01051039  RH  036%=      5-min Rain = 0
KSM1 171910Z 10006KT 11/M04 A3014 RMK A01 T01061037  RH  036%=      5-min Rain = 0
KSM1 171915Z 09006KT 11/M04 A3013 RMK A01 T01051038  RH  037%=      5-min Rain = 0
KSM1 171920Z 11006KT 11/M04 A3013 RMK A01 T01061038  RH  036%=      5-min Rain = 0
KSM1 171925Z 10006KT 11/M04 A3012 RMK A01 T01081036  RH  036%=      5-min Rain = 0
KSM1 171930Z 12007KT 11/M04 A3012 RMK A01 T01091037  RH  036%=      5-min Rain = 0
KSM1 171935Z 11006KT 11/M04 A3011 RMK A01 T01121037  RH  035%=      5-min Rain = 0
KSM1 171940Z 10006KT 11/M04 A3011 RMK A01 T01101041  RH  035%=      5-min Rain = 0
KSM1 171945Z 15005KT 11/M04 A3011 RMK A01 T01141041  RH  034%=      5-min Rain = 0
KSM1 171950Z 13004KT 12/M05 A301 RMK A01 T01171045  RH  032%=      5-min Rain = 0
KSM1 171955Z 14006KT 12/M04 A301 RMK A01 T01181042  RH  033%=      5-min Rain = 0
KSM1 172000Z 12006KT 12/M04 A3009 RMK A01 T01181044  RH  032%=      5-min Rain = 0
KSM1 172005Z 11005KT 12/M04 A3009 RMK A01 T01171043  RH  032%=      5-min Rain = 0
KSM1 172010Z 11006KT 12/M04 A3009 RMK A01 T01181038  RH  033%=      5-min Rain = 0
KSM1 172015Z 13005KT 12/M04 A3008 RMK A01 T01211040  RH  032%=      5-min Rain = 0
KSM1 172020Z 15007KT 12/M04 A3008 RMK A01 T01231037  RH  033%=      5-min Rain = 0
KSM1 172025Z 13006KT 12/M04 A3008 RMK A01 T01191042  RH  032%=      5-min Rain = 0
KSM1 172030Z 15006KT 12/M04 A3007 RMK A01 T01211042  RH  032%=      5-min Rain = 0
KSM1 172035Z 14005KT 13/M04 A3007 RMK A01 T01251040  RH  031%=      5-min Rain = 0
KSM1 172040Z 12006KT 12/M04 A3007 RMK A01 T01231040  RH  032%=      5-min Rain = 0
KSM1 172045Z 11005KT 12/M04 A3007 RMK A01 T01201043  RH  032%=      5-min Rain = 0
KSM1 172050Z 12005KT 12/M04 A3007 RMK A01 T01201044  RH  032%=      5-min Rain = 0
KSM1 172055Z 15005KT 13/M05 A3007 RMK A01 T01261047  RH  030%=      5-min Rain = 0
KSM1 172100Z 13004KT 13/M05 A3007 RMK A01 T01251045  RH  030%=      5-min Rain = 0
KSM1 172105Z 13005KT 13/M04 A3007 RMK A01 T01271042  RH  031%=      5-min Rain = 0
KSM1 172110Z 13003KT 13/M04 A3007 RMK A01 T01261043  RH  031%=      5-min Rain = 0
KSM1 172115Z 12007KT 13/M04 A3007 RMK A01 T01281042  RH  030%=      5-min Rain = 0
KSM1 172120Z 17005KT 13/M05 A3007 RMK A01 T01281045  RH  030%=      5-min Rain = 0
KSM1 172125Z 16004KT 13/M05 A3007 RMK A01 T01311046  RH  029%=      5-min Rain = 0
KSM1 172130Z 13006KT 13/M05 A3007 RMK A01 T01311045  RH  029%=      5-min Rain = 0
KSM1 172135Z 14005KT 13/M05 A3007 RMK A01 T01271046  RH  030%=      5-min Rain = 0
KSM1 172140Z 14004KT 13/M05 A3007 RMK A01 T01291048  RH  029%=      5-min Rain = 0
KSM1 172145Z 12003KT 13/M05 A3007 RMK A01 T01261050  RH  029%=      5-min Rain = 0
KSM1 172150Z 13004KT 13/M05 A3007 RMK A01 T01261048  RH  029%=      5-min Rain = 0
KSM1 172155Z 13004KT 13/M05 A3007 RMK A01 T01271048  RH  029%=      5-min Rain = 0
KSM1 172200Z 14006KT 13/M05 A3007 RMK A01 T01301046  RH  029%=      5-min Rain = 0
KSM1 172205Z 13006KT 13/M05 A3007 RMK A01 T01311045  RH  029%=      5-min Rain = 0
KSM1 172210Z 15006KT 13/M05 A3007 RMK A01 T01301045  RH  029%=      5-min Rain = 0
KSM1 172215Z 14004KT 13/M05 A3007 RMK A01 T01301046  RH  029%=      5-min Rain = 0
KSM1 172220Z 14005KT 13/M05 A3007 RMK A01 T01291046  RH  029%=      5-min Rain = 0
KSM1 172225Z 14003KT 13/M05 A3007 RMK A01 T01291046  RH  029%=      5-min Rain = 0
KSM1 172230Z 17006KT 13/M04 A3007 RMK A01 T01301043  RH  030%=      5-min Rain = 0
KSM1 172235Z 16005KT 13/M04 A3007 RMK A01 T01301044  RH  030%=      5-min Rain = 0
KSM1 172240Z 16004KT 13/M05 A3007 RMK A01 T01291045  RH  029%=      5-min Rain = 0
KSM1 172245Z 16004KT 13/M05 A3008 RMK A01 T01301046  RH  029%=      5-min Rain = 0
KSM1 172250Z 14006KT 13/M05 A3008 RMK A01 T01281045  RH  030%=      5-min Rain = 0
KSM1 172255Z 13005KT 13/M05 A3008 RMK A01 T01251045  RH  030%=      5-min Rain = 0
KSM1 172300Z 12005KT 12/M04 A3007 RMK A01 T01241043  RH  031%=      5-min Rain = 0
KSM1 172305Z 12005KT 12/M05 A3007 RMK A01 T01241045  RH  031%=      5-min Rain = 0
KSM1 172310Z 13005KT 12/M04 A3007 RMK A01 T01241044  RH  031%=      5-min Rain = 0
KSM1 172315Z 12005KT 12/M04 A3007 RMK A01 T01241043  RH  031%=      5-min Rain = 0
KSM1 172320Z 12004KT 12/M04 A3007 RMK A01 T01231043  RH  031%=      5-min Rain = 0
KSM1 172325Z 11005KT 12/M04 A3007 RMK A01 T01211042  RH  032%=      5-min Rain = 0
KSM1 172330Z 10005KT 12/M04 A3007 RMK A01 T01191043  RH  032%=      5-min Rain = 0
KSM1 172335Z 09005KT 12/M04 A3007 RMK A01 T01151040  RH  034%=      5-min Rain = 0
KSM1 172340Z 09005KT 11/M04 A3007 RMK A01 T01121041  RH  034%=      5-min Rain = 0
KSM1 172345Z 09006KT 11/M04 A3007 RMK A01 T01071037  RH  036%=      5-min Rain = 0
KSM1 172350Z 09005KT 10/M04 A3007 RMK A01 T01031035  RH  038%=      5-min Rain = 0
KSM1 172355Z 09006KT 10/M04 A3007 RMK A01 T01001035  RH  039%=      5-min Rain = 0
KSM1 180000Z 09005KT 09/M03 A3007 RMK A01 T00941034  RH  041%=      5-min Rain = 0
KSM1 180005Z 08007KT 09/M03 A3007 RMK A01 T00871034  RH  042%=      5-min Rain = 0
KSM1 180010Z 08007KT 08/M04 A3007 RMK A01 T00821035  RH  044%=      5-min Rain = 0
KSM1 180015Z 09007KT 08/M03 A3006 RMK A01 T00811033  RH  045%=      5-min Rain = 0
KSM1 180020Z 09007KT 08/M03 A3007 RMK A01 T00781034  RH  045%=      5-min Rain = 0
KSM1 180025Z 10007KT 07/M03 A3007 RMK A01 T00741032  RH  047%=      5-min Rain = 0
KSM1 180030Z 10007KT 07/M03 A3007 RMK A01 T00701030  RH  049%=      5-min Rain = 0
KSM1 180035Z 10007KT 07/M03 A3007 RMK A01 T00661031  RH  050%=      5-min Rain = 0
KSM1 180040Z 10007KT 06/M03 A3007 RMK A01 T00641030  RH  051%=      5-min Rain = 0
KSM1 180045Z 10009KT 07/M03 A3007 RMK A01 T00661030  RH  050%=      5-min Rain = 0
KSM1 180050Z 10009KT 07/M03 A3007 RMK A01 T00661030  RH  050%=      5-min Rain = 0
KSM1 180055Z 10008KT 06/M03 A3006 RMK A01 T00611030  RH  052%=      5-min Rain = 0
KSM1 180100Z 10009KT 06/M03 A3007 RMK A01 T00551030  RH  055%=      5-min Rain = 0
KSM1 180105Z 10008KT 06/M03 A3007 RMK A01 T00551030  RH  055%=      5-min Rain = 0
KSM1 180110Z 10008KT 05/M03 A3007 RMK A01 T00541031  RH  055%=      5-min Rain = 0
KSM1 180115Z 09008KT 05/M03 A3007 RMK A01 T00481031  RH  057%=      5-min Rain = 0
KSM1 180120Z 09008KT 05/M03 A3007 RMK A01 T00451030  RH  058%=      5-min Rain = 0
KSM1 180125Z 10008KT 05/M03 A3007 RMK A01 T00461029  RH  058%=      5-min Rain = 0
KSM1 180130Z 10008KT 05/M03 A3007 RMK A01 T00501030  RH  057%=      5-min Rain = 0
KSM1 180135Z 10007KT 05/M03 A3007 RMK A01 T00501030  RH  056%=      5-min Rain = 0
KSM1 180140Z 11008KT 05/M03 A3007 RMK A01 T00521030  RH  056%=      5-min Rain = 0
KSM1 180145Z 11008KT 05/M03 A3006 RMK A01 T00521031  RH  055%=      5-min Rain = 0
KSM1 180150Z 11009KT 05/M03 A3006 RMK A01 T00521031  RH  056%=      5-min Rain = 0
KSM1 180155Z 11008KT 05/M03 A3006 RMK A01 T00491031  RH  056%=      5-min Rain = 0
KSM1 180200Z 12007KT 04/M03 A3006 RMK A01 T00441031  RH  059%=      5-min Rain = 0
KSM1 180205Z 11006KT 04/M03 A3006 RMK A01 T00401030  RH  060%=      5-min Rain = 0
KSM1 180210Z 11007KT 04/M03 A3006 RMK A01 T00391031  RH  061%=      5-min Rain = 0
KSM1 180215Z 11007KT 04/M03 A3006 RMK A01 T00391031  RH  061%=      5-min Rain = 0
KSM1 180220Z 12007KT 04/M03 A3006 RMK A01 T00391031  RH  060%=      5-min Rain = 0
KSM1 180225Z 12007KT 04/M03 A3006 RMK A01 T00361032  RH  062%=      5-min Rain = 0
KSM1 180230Z 12007KT 03/M03 A3006 RMK A01 T00331032  RH  063%=      5-min Rain = 0
KSM1 180235Z 12006KT 03/M03 A3006 RMK A01 T00301032  RH  064%=      5-min Rain = 0
KSM1 180240Z 13005KT 03/M03 A3006 RMK A01 T00301033  RH  064%=      5-min Rain = 0
KSM1 180245Z 13005KT 02/M04 A3006 RMK A01 T00241035  RH  065%=      5-min Rain = 0
KSM1 180250Z 13005KT 02/M04 A3005 RMK A01 T00221037  RH  065%=      5-min Rain = 0
KSM1 180255Z 14005KT 02/M04 A3006 RMK A01 T00221038  RH  065%=      5-min Rain = 0
KSM1 180300Z 15005KT 02/M04 A3006 RMK A01 T00221038  RH  065%=      5-min Rain = 0
KSM1 180305Z 15006KT 02/M04 A3006 RMK A01 T00211037  RH  066%=      5-min Rain = 0
KSM1 180310Z 15006KT 02/M04 A3005 RMK A01 T00191037  RH  067%=      5-min Rain = 0
KSM1 180315Z 14005KT 02/M04 A3005 RMK A01 T00201037  RH  066%=      5-min Rain = 0
KSM1 180320Z 14005KT 02/M04 A3005 RMK A01 T00231038  RH  065%=      5-min Rain = 0
KSM1 180325Z 14005KT 02/M04 A3005 RMK A01 T00231039  RH  064%=      5-min Rain = 0
KSM1 180330Z 13005KT 02/M04 A3005 RMK A01 T00231039  RH  064%=      5-min Rain = 0
KSM1 180335Z 14005KT 02/M04 A3005 RMK A01 T00231039  RH  064%=      5-min Rain = 0
KSM1 180340Z 14005KT 02/M04 A3005 RMK A01 T00221039  RH  064%=      5-min Rain = 0
KSM1 180345Z 15005KT 02/M04 A3005 RMK A01 T00201039  RH  065%=      5-min Rain = 0
KSM1 180350Z 15006KT 02/M04 A3005 RMK A01 T00181039  RH  066%=      5-min Rain = 0
KSM1 180355Z 15006KT 02/M04 A3005 RMK A01 T00221038  RH  065%=      5-min Rain = 0
KSM1 180400Z 15005KT 02/M04 A3005 RMK A01 T00191040  RH  065%=      5-min Rain = 0
KSM1 180405Z 15005KT 02/M04 A3005 RMK A01 T00161040  RH  067%=      5-min Rain = 0
KSM1 180410Z 15005KT 02/M04 A3005 RMK A01 T00151041  RH  067%=      5-min Rain = 0
KSM1 180415Z 16005KT 01/M04 A3005 RMK A01 T00141041  RH  067%=      5-min Rain = 0
KSM1 180420Z 16006KT 01/M04 A3005 RMK A01 T00131041  RH  068%=      5-min Rain = 0
KSM1 180425Z 15006KT 01/M04 A3004 RMK A01 T00131041  RH  068%=      5-min Rain = 0
KSM1 180430Z 15006KT 01/M04 A3004 RMK A01 T00121041  RH  068%=      5-min Rain = 0
KSM1 180435Z 16006KT 01/M04 A3004 RMK A01 T00091041  RH  069%=      5-min Rain = 0
KSM1 180440Z 16006KT 01/M04 A3005 RMK A01 T00081041  RH  070%=      5-min Rain = 0
KSM1 180445Z 16006KT 01/M04 A3004 RMK A01 T00071040  RH  071%=      5-min Rain = 0
KSM1 180450Z 16007KT 01/M04 A3004 RMK A01 T00051040  RH  072%=      5-min Rain = 0
KSM1 180455Z 17007KT 01/M04 A3004 RMK A01 T00051039  RH  073%=      5-min Rain = 0
KSM1 180500Z 17007KT 01/M04 A3004 RMK A01 T00061038  RH  073%=      5-min Rain = 0
KSM1 180505Z 17007KT 01/M04 A3004 RMK A01 T00071038  RH  072%=      5-min Rain = 0
KSM1 180510Z 17007KT 01/M04 A3004 RMK A01 T00081039  RH  071%=      5-min Rain = 0
KSM1 180515Z 17007KT 01/M04 A3004 RMK A01 T00081039  RH  071%=      5-min Rain = 0
KSM1 180520Z 18007KT 01/M04 A3004 RMK A01 T00081039  RH  071%=      5-min Rain = 0
KSM1 180525Z 18007KT 01/M04 A3004 RMK A01 T00091038  RH  071%=      5-min Rain = 0
KSM1 180530Z 18008KT 01/M04 A3004 RMK A01 T00111037  RH  071%=      5-min Rain = 0
KSM1 180535Z 18008KT 02/M04 A3003 RMK A01 T00151037  RH  069%=      5-min Rain = 0
KSM1 180540Z 18008KT 02/M04 A3003 RMK A01 T00161038  RH  068%=      5-min Rain = 0
KSM1 180545Z 18008KT 02/M04 A3003 RMK A01 T00181038  RH  067%=      5-min Rain = 0
KSM1 180550Z 18008KT 02/M04 A3002 RMK A01 T00171039  RH  067%=      5-min Rain = 0
KSM1 180555Z 18008KT 02/M04 A3002 RMK A01 T00171039  RH  067%=      5-min Rain = 0

Page generated in 0.017 seconds.